LEBA

Details ICAO LEBA (ODB)
Name Cordoba
Region Spain
Timezone Europe/Madrid (UTC+2.0)
Plans Departing 26
Arriving 32
Stats Elevation 296 ft / 90 m (AMSL)
Location 37.843152° -4.848064°
Runways 1
Magnetic Variation 0.941° W
Sunrise 2018-05-23 05:05:03 UTC / 2018-05-23 07:05:03 Local
Sunset 2018-05-23 19:30:05 UTC / 2018-05-23 21:30:05 Local
Advertisement - Login to hide

Runways

ID Width Length Bearing (true) Bearing (mag) Surface Threshold Offset Overrun Length
03 197 ft / 60 m 7,224 ft / 2,202 m 28.69° 29.63° Asphalt 0 ft / 0 m 0 ft / 0 m
21 197 ft / 60 m 7,224 ft / 2,202 m 208.70° 209.64° Asphalt 1,939 ft / 591 m 0 ft / 0 m

Map

Weather


0- 5 10 15 20 25 30 35+ Temperature / ° C

Clouds and Precipitation
Forecast for 2018-05-23 06:00 UTC. Updated 30 minutes ago

Ground ~20,000 ft ~40,000 ft Winds

METAR

LEBA 230330Z AUTO 00000KT 9999 NCD 13/11 Q1014

TAF

Not found

Frequencies

Unicom 118.30 MHz CTAF
Warning: Do not use this data for real-world aviation or navigation. No guarantee of current accuracy is given.